Time;durP1;ratioP1;P1;durP2;ratioP2;P2;SDS_P1;SDS_P2;PMS_P1;PMS_P2;Temp;Humidity;BMP_temperature;BMP_pressure;BME280_temperature;BME280_humidity;BME280_pressure;Samples;Min_cycle;Max_cycle;Signal;HPM_P1;HPM_P2
2021/12/25 00:02:10;;;;;;;14.73;8.80;;;;;;;;;;4980834;28;20092;-82
2021/12/25 00:04:37;;;;;;;16.90;9.32;;;;;;;;;;4980434;28;20023;-83
2021/12/25 00:07:03;;;;;;;17.40;10.27;;;;;;;;;;4980473;28;20026;-83
2021/12/25 00:09:29;;;;;;;20.65;11.02;;;;;;;;;;4980462;28;20026;-82
2021/12/25 00:11:55;;;;;;;16.42;9.15;;;;;;;;;;4978584;28;20053;-83
2021/12/25 00:14:22;;;;;;;18.70;10.23;;;;;;;;;;4980441;28;20102;-83
2021/12/25 00:16:48;;;;;;;17.38;10.05;;;;;;;;;;4980355;28;20061;-83
2021/12/25 00:19:15;;;;;;;13.95;8.30;;;;;;;;;;4978436;28;20130;-83
2021/12/25 00:21:41;;;;;;;11.38;7.70;;;;;;;;;;4980253;28;20101;-82
2021/12/25 00:24:07;;;;;;;11.85;6.57;;;;;;;;;;4979034;28;20333;-83
2021/12/25 00:26:43;;;;;;;13.20;7.40;;;;;;;;;;4978323;28;20062;-83
2021/12/25 00:32:11;;;;;;;13.05;8.02;;;;;;;;;;4980287;28;20410;-82
2021/12/25 00:34:38;;;;;;;15.10;10.45;;;;;;;;;;4980091;28;20046;-82
2021/12/25 00:37:05;;;;;;;14.65;10.10;;;;;;;;;;4979836;28;20033;-82
2021/12/25 00:39:31;;;;;;;14.98;9.70;;;;;;;;;;4979728;28;20055;-83
2021/12/25 00:41:57;;;;;;;17.92;9.88;;;;;;;;;;4979546;28;20042;-82
2021/12/25 00:44:26;;;;;;;15.32;7.25;;;;;;;;;;4980003;28;20059;-83
2021/12/25 00:46:52;;;;;;;13.60;6.95;;;;;;;;;;4978815;28;20061;-83
2021/12/25 00:49:18;;;;;;;13.85;7.18;;;;;;;;;;4977365;28;20045;-83
2021/12/25 00:51:44;;;;;;;15.65;6.95;;;;;;;;;;4978689;28;20029;-83
2021/12/25 00:54:10;;;;;;;13.35;6.93;;;;;;;;;;4979664;28;20413;-83
2021/12/25 00:56:36;;;;;;;10.95;6.30;;;;;;;;;;4978449;28;20030;-83
2021/12/25 00:59:02;;;;;;;9.48;5.55;;;;;;;;;;4979500;28;20030;-83
2021/12/25 01:01:29;;;;;;;11.85;6.53;;;;;;;;;;4979700;28;20106;-83
2021/12/25 01:03:55;;;;;;;10.65;5.95;;;;;;;;;;4979528;28;20110;-83
2021/12/25 01:06:21;;;;;;;10.15;5.53;;;;;;;;;;4979543;28;20023;-83
2021/12/25 01:08:47;;;;;;;10.60;6.57;;;;;;;;;;4979364;28;20034;-83
2021/12/25 01:11:15;;;;;;;9.40;5.85;;;;;;;;;;4979585;28;20038;-82
2021/12/25 01:13:48;;;;;;;8.93;5.80;;;;;;;;;;4979428;28;20050;-83
2021/12/25 01:16:43;;;;;;;8.75;5.75;;;;;;;;;;4977463;28;20038;-82
2021/12/25 01:49:21;;;;;;;8.90;5.68;;;;;;;;;;4827040;29;20155;-82
2021/12/25 01:51:47;;;;;;;13.30;7.25;;;;;;;;;;4826699;29;20046;-83
2021/12/25 01:54:13;;;;;;;14.68;6.93;;;;;;;;;;4826662;29;20038;-82
2021/12/25 01:56:39;;;;;;;11.43;7.05;;;;;;;;;;4826618;29;20031;-82
2021/12/25 01:59:05;;;;;;;12.10;6.55;;;;;;;;;;4826229;29;20042;-82
2021/12/25 02:01:32;;;;;;;10.98;6.72;;;;;;;;;;4826483;29;20199;-83
2021/12/25 02:03:58;;;;;;;10.68;6.32;;;;;;;;;;4826542;29;20121;-82
2021/12/25 02:06:24;;;;;;;11.50;6.47;;;;;;;;;;4826503;29;20042;-81
2021/12/25 02:08:50;;;;;;;11.13;5.85;;;;;;;;;;4875159;29;20037;-81
2021/12/25 02:11:16;;;;;;;11.20;5.88;;;;;;;;;;4908173;29;20047;-82
2021/12/25 02:13:43;;;;;;;9.07;5.82;;;;;;;;;;4957208;29;20039;-82
2021/12/25 02:16:14;;;;;;;10.90;6.32;;;;;;;;;;4957054;29;20067;-81
2021/12/25 02:21:16;;;;;;;10.65;5.63;;;;;;;;;;4978404;28;20034;-81
2021/12/25 02:23:42;;;;;;;12.25;6.32;;;;;;;;;;4978072;28;20452;-82
2021/12/25 02:26:08;;;;;;;12.57;6.88;;;;;;;;;;4978240;28;20102;-82
2021/12/25 02:28:35;;;;;;;11.85;6.65;;;;;;;;;;4978207;28;20038;-82
2021/12/25 02:31:05;;;;;;;10.70;5.85;;;;;;;;;;4977930;28;20022;-82
2021/12/25 02:33:31;;;;;;;12.95;6.32;;;;;;;;;;4978285;28;20033;-81
2021/12/25 02:35:57;;;;;;;11.00;6.85;;;;;;;;;;4978188;28;20034;-81
2021/12/25 02:38:41;;;;;;;13.07;5.95;;;;;;;;;;4978071;28;20038;-82
2021/12/25 02:41:07;;;;;;;11.52;6.38;;;;;;;;;;4977993;28;20126;-81
2021/12/25 02:43:33;;;;;;;12.43;6.80;;;;;;;;;;4978005;28;20042;-82
2021/12/25 02:46:02;;;;;;;15.57;7.30;;;;;;;;;;4977951;28;20117;-81
2021/12/25 02:48:29;;;;;;;14.30;8.10;;;;;;;;;;4978182;28;20368;-82
2021/12/25 02:50:55;;;;;;;19.63;8.48;;;;;;;;;;4976896;28;20053;-81
2021/12/25 02:53:21;;;;;;;14.65;8.52;;;;;;;;;;4978312;28;20023;-81
2021/12/25 02:55:48;;;;;;;15.27;8.27;;;;;;;;;;4977643;28;20074;-81
2021/12/25 02:58:15;;;;;;;15.90;8.38;;;;;;;;;;4978072;28;20357;-81
2021/12/25 03:00:44;;;;;;;16.40;8.20;;;;;;;;;;4976941;28;20113;-81
2021/12/25 03:03:10;;;;;;;15.68;8.30;;;;;;;;;;4977783;28;20488;-81
2021/12/25 03:05:37;;;;;;;16.38;7.65;;;;;;;;;;4977928;28;20047;-81
2021/12/25 03:08:04;;;;;;;14.88;8.75;;;;;;;;;;4976733;28;20465;-81
2021/12/25 03:10:33;;;;;;;16.58;8.27;;;;;;;;;;4977768;28;20329;-81
2021/12/25 03:15:45;;;;;;;14.65;8.18;;;;;;;;;;4981202;28;20121;-81
2021/12/25 03:18:25;;;;;;;17.27;8.18;;;;;;;;;;4981322;28;20321;-82
2021/12/25 03:20:53;;;;;;;14.93;8.73;;;;;;;;;;4981372;28;20023;-82
2021/12/25 03:23:21;;;;;;;16.05;8.45;;;;;;;;;;4981205;28;20027;-81
2021/12/25 03:25:48;;;;;;;15.13;8.73;;;;;;;;;;4980201;28;20325;-81
2021/12/25 03:28:14;;;;;;;14.75;8.68;;;;;;;;;;4981075;28;20027;-81
2021/12/25 03:30:41;;;;;;;15.25;9.02;;;;;;;;;;4981232;28;20027;-81
2021/12/25 03:33:08;;;;;;;15.98;8.38;;;;;;;;;;4981342;28;20023;-82
2021/12/25 03:35:34;;;;;;;16.17;9.48;;;;;;;;;;4981034;28;20038;-82
2021/12/25 03:38:01;;;;;;;25.38;13.48;;;;;;;;;;4980904;28;20031;-82
2021/12/25 03:40:28;;;;;;;30.05;16.85;;;;;;;;;;4980702;28;20034;-82
2021/12/25 03:42:54;;;;;;;29.98;15.10;;;;;;;;;;4980944;28;20472;-81
2021/12/25 03:45:20;;;;;;;23.55;12.77;;;;;;;;;;4980970;28;20038;-82
2021/12/25 03:47:48;;;;;;;19.63;10.50;;;;;;;;;;4981014;28;20370;-82
2021/12/25 03:59:01;;;;;;;8.15;5.57;;;;;;;;;;4921411;29;20043;-82
2021/12/25 04:01:44;;;;;;;10.98;6.05;;;;;;;;;;4921374;29;20077;-83
2021/12/25 04:04:36;;;;;;;11.45;6.05;;;;;;;;;;4921277;29;20121;-83
2021/12/25 04:07:04;;;;;;;11.27;6.55;;;;;;;;;;4920717;28;20454;-83
2021/12/25 04:09:32;;;;;;;12.68;6.72;;;;;;;;;;4921004;29;20390;-82
2021/12/25 04:12:00;;;;;;;13.05;7.55;;;;;;;;;;4921090;29;20342;-81
2021/12/25 04:14:26;;;;;;;19.25;10.60;;;;;;;;;;4920947;29;20304;-82
2021/12/25 04:16:53;;;;;;;24.23;12.65;;;;;;;;;;4921071;29;20060;-82
2021/12/25 04:19:19;;;;;;;24.52;13.73;;;;;;;;;;4920708;29;20402;-81
2021/12/25 04:21:54;;;;;;;24.20;14.15;;;;;;;;;;4920767;29;20323;-81
2021/12/25 04:24:20;;;;;;;20.13;12.23;;;;;;;;;;4919512;29;20439;-81
2021/12/25 04:26:48;;;;;;;20.15;12.95;;;;;;;;;;4933933;28;20034;-81
2021/12/25 05:02:11;;;;;;;23.38;12.55;;;;;;;;;;4979601;28;20086;-82
2021/12/25 05:04:49;;;;;;;23.48;12.90;;;;;;;;;;4979486;28;20050;-82
2021/12/25 05:07:16;;;;;;;27.85;14.25;;;;;;;;;;4978234;28;20061;-82
2021/12/25 05:09:42;;;;;;;31.63;14.55;;;;;;;;;;4979304;28;20027;-82
2021/12/25 05:12:08;;;;;;;29.40;15.52;;;;;;;;;;4979177;28;20105;-82
2021/12/25 05:14:34;;;;;;;38.90;18.73;;;;;;;;;;4979466;28;20030;-82
2021/12/25 05:17:00;;;;;;;56.30;24.98;;;;;;;;;;4977391;28;20035;-82
2021/12/25 05:19:26;;;;;;;62.78;27.90;;;;;;;;;;4978971;28;20034;-82
2021/12/25 05:21:53;;;;;;;56.50;27.00;;;;;;;;;;4977488;28;20066;-82
2021/12/25 05:24:19;;;;;;;32.38;15.63;;;;;;;;;;4979002;28;20023;-82
2021/12/25 05:26:45;;;;;;;20.30;9.52;;;;;;;;;;4978895;28;20420;-82
2021/12/25 05:29:11;;;;;;;14.40;7.80;;;;;;;;;;4978926;28;20122;-82
2021/12/25 05:31:38;;;;;;;20.05;9.50;;;;;;;;;;4979029;28;20034;-82
2021/12/25 05:34:04;;;;;;;34.80;13.90;;;;;;;;;;4977626;28;20061;-81
2021/12/25 05:36:31;;;;;;;30.98;13.00;;;;;;;;;;4978923;28;20088;-81
2021/12/25 05:38:59;;;;;;;18.42;9.77;;;;;;;;;;4979019;28;20031;-81
2021/12/25 05:41:26;;;;;;;16.98;8.00;;;;;;;;;;4978481;28;20593;-82
2021/12/25 05:43:52;;;;;;;13.02;7.45;;;;;;;;;;4978561;28;20325;-81
2021/12/25 05:46:18;;;;;;;13.00;6.97;;;;;;;;;;4978732;28;20042;-82
2021/12/25 05:48:45;;;;;;;11.80;7.70;;;;;;;;;;4976917;28;20041;-81
2021/12/25 05:51:12;;;;;;;11.00;6.55;;;;;;;;;;4977544;28;20031;-82
2021/12/25 05:53:38;;;;;;;10.65;6.78;;;;;;;;;;4977371;28;20030;-82
2021/12/25 05:56:05;;;;;;;9.68;6.00;;;;;;;;;;4977632;28;20046;-81
2021/12/25 05:58:31;;;;;;;10.35;6.45;;;;;;;;;;4978480;28;20050;-82
2021/12/25 06:00:57;;;;;;;20.83;12.70;;;;;;;;;;4978482;28;20058;-82
2021/12/25 06:03:23;;;;;;;18.27;12.85;;;;;;;;;;4978571;28;20314;-82
2021/12/25 06:05:49;;;;;;;25.90;18.60;;;;;;;;;;4978309;28;20405;-82
2021/12/25 06:08:15;;;;;;;30.23;22.80;;;;;;;;;;4977262;28;20034;-82
2021/12/25 06:10:42;;;;;;;18.40;13.57;;;;;;;;;;4978192;28;20146;-81
2021/12/25 06:13:11;;;;;;;23.45;14.35;;;;;;;;;;4978221;28;20046;-81
2021/12/25 06:15:37;;;;;;;17.25;11.15;;;;;;;;;;4978236;28;20091;-83
2021/12/25 06:18:03;;;;;;;14.00;9.25;;;;;;;;;;4976147;28;20038;-82
2021/12/25 06:20:29;;;;;;;16.10;10.05;;;;;;;;;;4978481;28;20023;-82
2021/12/25 06:22:55;;;;;;;17.33;11.80;;;;;;;;;;4978225;28;20113;-83
2021/12/25 06:25:22;;;;;;;14.55;9.00;;;;;;;;;;4978344;28;20329;-82
2021/12/25 06:27:48;;;;;;;16.75;9.68;;;;;;;;;;4977209;28;20038;-82
2021/12/25 06:30:14;;;;;;;38.20;21.80;;;;;;;;;;4978298;28;20118;-82
2021/12/25 06:32:40;;;;;;;33.25;20.05;;;;;;;;;;4976920;28;20043;-82
2021/12/25 06:35:06;;;;;;;26.52;15.18;;;;;;;;;;4978350;28;20038;-81
2021/12/25 06:37:33;;;;;;;22.88;12.35;;;;;;;;;;4977008;28;20358;-81
2021/12/25 06:39:59;;;;;;;20.20;10.93;;;;;;;;;;4976208;28;20035;-81
2021/12/25 06:42:25;;;;;;;18.23;9.32;;;;;;;;;;4977837;28;20067;-81
2021/12/25 06:44:51;;;;;;;13.07;7.22;;;;;;;;;;4978042;28;20105;-81
2021/12/25 06:47:17;;;;;;;19.73;10.40;;;;;;;;;;4978630;28;20073;-81
2021/12/25 06:49:43;;;;;;;61.35;32.28;;;;;;;;;;4981806;28;20062;-81
2021/12/25 06:52:09;;;;;;;56.35;30.80;;;;;;;;;;4981703;28;20022;-82
2021/12/25 06:54:35;;;;;;;46.80;27.10;;;;;;;;;;4980097;28;20035;-82
2021/12/25 06:57:02;;;;;;;39.15;20.90;;;;;;;;;;4980683;28;20413;-82
2021/12/25 06:59:30;;;;;;;26.38;16.13;;;;;;;;;;4980050;28;20049;-81
2021/12/25 07:01:57;;;;;;;24.13;15.10;;;;;;;;;;4981438;28;20456;-82
2021/12/25 07:04:23;;;;;;;24.98;14.70;;;;;;;;;;4980494;28;20053;-82
2021/12/25 07:06:49;;;;;;;26.52;14.60;;;;;;;;;;4981747;28;20050;-82
2021/12/25 07:09:15;;;;;;;29.75;16.83;;;;;;;;;;4981571;28;20100;-82
2021/12/25 07:11:42;;;;;;;31.10;21.02;;;;;;;;;;4981204;28;20039;-81
2021/12/25 07:14:11;;;;;;;42.90;31.13;;;;;;;;;;4981397;28;20413;-81
2021/12/25 07:16:37;;;;;;;38.05;30.90;;;;;;;;;;4986080;28;20030;-81
2021/12/25 07:19:03;;;;;;;38.90;31.50;;;;;;;;;;5000648;28;20416;-83
2021/12/25 07:21:30;;;;;;;51.30;38.40;;;;;;;;;;5000825;28;20027;-82
2021/12/25 07:23:56;;;;;;;53.92;40.72;;;;;;;;;;5000614;28;20057;-82
2021/12/25 07:26:23;;;;;;;64.10;45.42;;;;;;;;;;5000601;28;20101;-82
2021/12/25 07:28:50;;;;;;;65.18;43.35;;;;;;;;;;5000557;28;20023;-81
2021/12/25 07:31:18;;;;;;;139.00;78.72;;;;;;;;;;5000387;28;20046;-81
2021/12/25 07:33:44;;;;;;;147.00;83.22;;;;;;;;;;5000354;28;20028;-81
2021/12/25 07:36:11;;;;;;;170.60;93.60;;;;;;;;;;5000065;28;20038;-81
2021/12/25 07:38:38;;;;;;;183.60;92.65;;;;;;;;;;5000300;28;20129;-80
2021/12/25 07:41:04;;;;;;;143.80;67.20;;;;;;;;;;4998957;28;20078;-80
2021/12/25 07:43:30;;;;;;;91.90;45.22;;;;;;;;;;5000182;28;20049;-80
2021/12/25 07:45:56;;;;;;;83.63;42.05;;;;;;;;;;5000057;28;20068;-81
2021/12/25 07:48:25;;;;;;;47.33;27.73;;;;;;;;;;5000341;28;20106;-80
2021/12/25 07:50:51;;;;;;;51.45;23.92;;;;;;;;;;5000076;28;20104;-81
2021/12/25 07:53:17;;;;;;;48.45;24.70;;;;;;;;;;4999936;28;20397;-80
2021/12/25 07:55:44;;;;;;;45.17;23.67;;;;;;;;;;5000097;28;20520;-81
2021/12/25 07:58:10;;;;;;;36.58;20.08;;;;;;;;;;4999615;28;20027;-81
2021/12/25 08:00:36;;;;;;;37.08;19.90;;;;;;;;;;4999777;28;20033;-81
2021/12/25 08:03:03;;;;;;;33.50;18.48;;;;;;;;;;4999871;28;20480;-81
2021/12/25 08:05:29;;;;;;;34.53;21.42;;;;;;;;;;4999828;28;20061;-81
2021/12/25 08:07:55;;;;;;;50.88;33.08;;;;;;;;;;4999851;28;20114;-81
2021/12/25 08:10:22;;;;;;;39.92;26.92;;;;;;;;;;4998315;28;20105;-81
2021/12/25 08:12:49;;;;;;;30.55;18.40;;;;;;;;;;4999740;28;20433;-81
2021/12/25 08:15:16;;;;;;;29.58;14.45;;;;;;;;;;4999686;28;20547;-81
2021/12/25 08:17:43;;;;;;;37.53;18.40;;;;;;;;;;4999437;28;20034;-81
2021/12/25 08:20:09;;;;;;;31.70;17.08;;;;;;;;;;4999533;28;20401;-82
2021/12/25 08:22:36;;;;;;;58.03;24.50;;;;;;;;;;4999668;28;20022;-81
2021/12/25 08:25:03;;;;;;;181.50;61.88;;;;;;;;;;4999447;28;20026;-82
2021/12/25 08:27:29;;;;;;;187.45;61.58;;;;;;;;;;4999548;28;20349;-82
2021/12/25 08:29:55;;;;;;;205.10;61.13;;;;;;;;;;4999452;28;20029;-81
2021/12/25 08:32:21;;;;;;;194.75;60.05;;;;;;;;;;4999439;28;20103;-81
2021/12/25 08:34:47;;;;;;;196.93;56.97;;;;;;;;;;4998296;28;20026;-81
2021/12/25 08:37:14;;;;;;;163.70;47.53;;;;;;;;;;4999449;28;20081;-81
2021/12/25 08:39:40;;;;;;;135.95;41.03;;;;;;;;;;4999283;28;20133;-81
2021/12/25 08:42:06;;;;;;;106.45;34.83;;;;;;;;;;4997435;28;20133;-81
2021/12/25 08:45:30;;;;;;;98.22;31.67;;;;;;;;;;4999175;28;20105;-82
2021/12/25 08:47:24;;;;;;;94.90;30.75;;;;;;;;;;4991075;28;20428;-82
2021/12/25 08:49:50;;;;;;;89.75;27.85;;;;;;;;;;4998962;28;20026;-82
2021/12/25 08:52:17;;;;;;;68.65;26.00;;;;;;;;;;4998941;28;20072;-81
2021/12/25 08:54:44;;;;;;;66.22;24.08;;;;;;;;;;4998872;28;20033;-82
2021/12/25 08:57:10;;;;;;;52.38;20.95;;;;;;;;;;4998875;28;20033;-81
2021/12/25 08:59:37;;;;;;;33.20;18.15;;;;;;;;;;4997635;28;20034;-82
2021/12/25 09:02:06;;;;;;;45.65;20.55;;;;;;;;;;4998985;28;20027;-81
2021/12/25 09:04:32;;;;;;;62.95;32.10;;;;;;;;;;4997775;28;20049;-82
2021/12/25 09:06:59;;;;;;;74.35;35.42;;;;;;;;;;4998646;28;20024;-82
2021/12/25 09:09:25;;;;;;;76.82;35.97;;;;;;;;;;4997001;28;20033;-81
2021/12/25 09:11:51;;;;;;;45.25;22.52;;;;;;;;;;4998737;28;20380;-82
2021/12/25 09:14:17;;;;;;;78.97;30.55;;;;;;;;;;4998602;28;20022;-82
2021/12/25 09:16:43;;;;;;;65.03;26.58;;;;;;;;;;4997417;28;20397;-82
2021/12/25 09:19:09;;;;;;;44.40;22.17;;;;;;;;;;4998598;28;20387;-82
2021/12/25 09:21:35;;;;;;;38.38;19.08;;;;;;;;;;4998420;28;20022;-82
2021/12/25 09:24:02;;;;;;;42.58;22.65;;;;;;;;;;4998382;28;20117;-82
2021/12/25 09:26:28;;;;;;;33.83;18.65;;;;;;;;;;4998295;28;20030;-82
2021/12/25 09:28:54;;;;;;;42.42;23.58;;;;;;;;;;4998289;28;20126;-82
2021/12/25 09:31:20;;;;;;;74.07;38.63;;;;;;;;;;4997401;28;20023;-82
2021/12/25 09:33:46;;;;;;;74.95;39.92;;;;;;;;;;4998175;28;20030;-81
2021/12/25 09:36:12;;;;;;;51.17;32.08;;;;;;;;;;4998338;28;20023;-81
2021/12/25 09:38:38;;;;;;;52.78;29.05;;;;;;;;;;4996932;28;20121;-81
2021/12/25 09:41:05;;;;;;;52.95;27.10;;;;;;;;;;4997936;28;20049;-81
2021/12/25 09:43:32;;;;;;;49.90;27.80;;;;;;;;;;4998033;28;20432;-82
2021/12/25 09:45:58;;;;;;;66.25;30.52;;;;;;;;;;4998103;28;20023;-82
2021/12/25 09:48:24;;;;;;;69.63;31.88;;;;;;;;;;4998227;28;20034;-82
2021/12/25 09:50:50;;;;;;;60.97;29.35;;;;;;;;;;4998005;28;20077;-82
2021/12/25 09:53:18;;;;;;;58.42;30.95;;;;;;;;;;4997906;28;20145;-82
2021/12/25 09:55:44;;;;;;;49.00;27.85;;;;;;;;;;4997848;28;20041;-82
2021/12/25 09:58:10;;;;;;;41.15;23.23;;;;;;;;;;4997788;28;20423;-82
2021/12/25 10:00:38;;;;;;;33.17;17.77;;;;;;;;;;4996695;28;20034;-82
2021/12/25 10:03:04;;;;;;;30.77;17.65;;;;;;;;;;4998020;28;20025;-82
2021/12/25 10:05:35;;;;;;;25.02;15.25;;;;;;;;;;4997685;28;20026;-82
2021/12/25 10:08:11;;;;;;;32.70;20.40;;;;;;;;;;4997742;28;20030;-82
2021/12/25 10:10:43;;;;;;;27.08;16.65;;;;;;;;;;4989612;28;20038;-81
2021/12/25 10:13:25;;;;;;;36.40;19.25;;;;;;;;;;4990507;28;20030;-82
2021/12/25 10:15:52;;;;;;;35.95;20.88;;;;;;;;;;4995357;28;20061;-82
2021/12/25 10:18:25;;;;;;;33.40;19.13;;;;;;;;;;4978367;28;20106;-81
2021/12/25 10:20:51;;;;;;;34.38;19.45;;;;;;;;;;4979292;28;20125;-82
2021/12/25 10:23:24;;;;;;;40.85;23.00;;;;;;;;;;4989658;28;20045;-82
2021/12/25 10:25:53;;;;;;;49.10;28.30;;;;;;;;;;5000916;28;20018;-82
2021/12/25 10:28:39;;;;;;;53.13;28.42;;;;;;;;;;4997110;28;20031;-82
2021/12/25 10:31:08;;;;;;;43.17;24.73;;;;;;;;;;4983109;28;20110;-81
2021/12/25 10:33:41;;;;;;;30.38;19.63;;;;;;;;;;4980986;28;20066;-80
2021/12/25 10:36:09;;;;;;;32.83;18.58;;;;;;;;;;4983089;28;20317;-79
2021/12/25 10:38:36;;;;;;;32.22;20.10;;;;;;;;;;4993640;28;20078;-82
2021/12/25 10:41:19;;;;;;;32.25;19.42;;;;;;;;;;4998939;28;20042;-80
2021/12/25 10:43:47;;;;;;;25.83;16.23;;;;;;;;;;4987302;28;20049;-80
2021/12/25 10:46:13;;;;;;;19.02;11.40;;;;;;;;;;4981439;28;20023;-80
2021/12/25 10:48:39;;;;;;;17.35;9.82;;;;;;;;;;4982768;28;20042;-80
2021/12/25 10:51:05;;;;;;;18.52;10.85;;;;;;;;;;4982747;28;20030;-80
2021/12/25 10:53:40;;;;;;;29.10;14.57;;;;;;;;;;4982157;28;20066;-81
2021/12/25 10:56:14;;;;;;;30.80;18.80;;;;;;;;;;4982655;28;20077;-80
2021/12/25 10:58:41;;;;;;;29.50;17.40;;;;;;;;;;4980877;28;20038;-80
2021/12/25 11:01:09;;;;;;;34.00;19.88;;;;;;;;;;4991281;28;20030;-81
2021/12/25 11:03:37;;;;;;;35.95;23.55;;;;;;;;;;5000868;28;20034;-82
2021/12/25 11:06:05;;;;;;;34.92;19.55;;;;;;;;;;4999862;28;20109;-81
2021/12/25 11:08:32;;;;;;;33.95;21.75;;;;;;;;;;5000812;28;20424;-81
2021/12/25 11:11:04;;;;;;;35.03;22.75;;;;;;;;;;5000997;28;20377;-81
2021/12/25 11:13:32;;;;;;;62.33;34.75;;;;;;;;;;5000726;28;20034;-81
2021/12/25 11:16:05;;;;;;;137.10;65.47;;;;;;;;;;5000550;28;20030;-81
2021/12/25 11:18:32;;;;;;;173.23;69.60;;;;;;;;;;5000826;28;20084;-81
2021/12/25 11:20:59;;;;;;;205.57;79.47;;;;;;;;;;5000914;28;20022;-81
2021/12/25 11:23:27;;;;;;;136.82;49.38;;;;;;;;;;5000735;28;20030;-81
2021/12/25 11:25:54;;;;;;;62.17;33.55;;;;;;;;;;4999591;28;20026;-81
2021/12/25 11:28:20;;;;;;;51.83;26.45;;;;;;;;;;5000635;28;20321;-81
2021/12/25 11:30:50;;;;;;;105.35;39.08;;;;;;;;;;4999439;28;20041;-81
2021/12/25 11:33:16;;;;;;;74.53;30.77;;;;;;;;;;4999785;28;20034;-81
2021/12/25 11:35:42;;;;;;;57.15;28.55;;;;;;;;;;5000488;28;20030;-81
2021/12/25 11:38:10;;;;;;;56.42;29.63;;;;;;;;;;5000096;28;20033;-81
2021/12/25 11:40:39;;;;;;;45.75;25.92;;;;;;;;;;5000321;28;20451;-81
2021/12/25 11:43:05;;;;;;;58.92;30.50;;;;;;;;;;4998947;28;20038;-81
2021/12/25 11:45:34;;;;;;;197.25;55.42;;;;;;;;;;5000186;28;20025;-81
2021/12/25 11:48:02;;;;;;;293.80;94.00;;;;;;;;;;5000361;28;20030;-81
2021/12/25 11:50:40;;;;;;;144.27;54.03;;;;;;;;;;5000208;28;20030;-81
2021/12/25 11:53:09;;;;;;;80.68;37.67;;;;;;;;;;4992112;28;20039;-80
2021/12/25 11:58:37;;;;;;;174.55;63.65;;;;;;;;;;4988534;28;20062;-80
2021/12/25 12:01:18;;;;;;;124.55;47.95;;;;;;;;;;4985637;28;20316;-80
2021/12/25 12:03:52;;;;;;;84.00;41.75;;;;;;;;;;4980371;28;20033;-80
2021/12/25 12:06:19;;;;;;;59.50;34.33;;;;;;;;;;4979122;28;20046;-80
2021/12/25 12:08:54;;;;;;;79.88;37.60;;;;;;;;;;4980178;28;20027;-80
2021/12/25 12:11:21;;;;;;;64.53;38.30;;;;;;;;;;4980415;28;20421;-80
2021/12/25 12:13:47;;;;;;;56.97;34.38;;;;;;;;;;4979964;28;20493;-80
2021/12/25 12:16:14;;;;;;;105.70;50.72;;;;;;;;;;4988993;28;20035;-79
2021/12/25 12:18:41;;;;;;;114.88;56.70;;;;;;;;;;4985769;28;20038;-80
2021/12/25 12:21:33;;;;;;;76.70;39.15;;;;;;;;;;4980076;28;20023;-80
2021/12/25 12:24:27;;;;;;;66.22;38.35;;;;;;;;;;4978313;28;20035;-80
2021/12/25 12:26:55;;;;;;;43.33;23.38;;;;;;;;;;4979630;28;20047;-80
2021/12/25 12:29:39;;;;;;;50.28;24.92;;;;;;;;;;4979950;28;20059;-79
2021/12/25 12:32:26;;;;;;;29.23;19.05;;;;;;;;;;4980096;28;20073;-80
2021/12/25 12:34:53;;;;;;;46.25;24.63;;;;;;;;;;4939634;29;20119;-80
2021/12/25 12:37:19;;;;;;;34.50;19.30;;;;;;;;;;4939600;29;20370;-80
2021/12/25 12:39:59;;;;;;;34.85;21.90;;;;;;;;;;4923265;29;20035;-80
2021/12/25 12:42:48;;;;;;;41.75;23.80;;;;;;;;;;4939197;29;20088;-80
2021/12/25 12:45:23;;;;;;;46.38;25.63;;;;;;;;;;4938276;28;20035;-79
2021/12/25 12:48:15;;;;;;;58.08;31.80;;;;;;;;;;4939413;29;20030;-80
2021/12/25 12:50:43;;;;;;;60.03;30.55;;;;;;;;;;4936494;29;20028;-80
2021/12/25 12:53:10;;;;;;;52.22;29.38;;;;;;;;;;4939178;29;20042;-80
2021/12/25 12:55:37;;;;;;;46.28;28.25;;;;;;;;;;4923000;29;20341;-80
2021/12/25 12:58:09;;;;;;;66.07;35.80;;;;;;;;;;4936132;29;20421;-79
2021/12/25 13:00:36;;;;;;;82.97;43.78;;;;;;;;;;4922983;29;20046;-79
2021/12/25 13:03:02;;;;;;;62.50;33.90;;;;;;;;;;4938786;29;20454;-80
2021/12/25 13:05:42;;;;;;;94.63;41.20;;;;;;;;;;4922726;29;20075;-80
2021/12/25 13:08:16;;;;;;;44.47;24.40;;;;;;;;;;4938729;29;20435;-80
2021/12/25 13:10:52;;;;;;;26.90;15.00;;;;;;;;;;4938533;29;20079;-80
2021/12/25 13:13:25;;;;;;;20.55;12.98;;;;;;;;;;4979035;28;20034;-80
2021/12/25 13:16:11;;;;;;;22.55;12.50;;;;;;;;;;4977749;28;20130;-80
2021/12/25 13:18:39;;;;;;;12.13;7.60;;;;;;;;;;4978546;28;20050;-79
2021/12/25 13:21:09;;;;;;;13.35;6.93;;;;;;;;;;4979066;28;20031;-80
2021/12/25 13:23:48;;;;;;;14.13;8.75;;;;;;;;;;4978689;28;20027;-80
2021/12/25 13:26:17;;;;;;;16.85;9.50;;;;;;;;;;4978631;28;20049;-80
2021/12/25 13:28:46;;;;;;;18.23;9.75;;;;;;;;;;4978461;28;20029;-80
2021/12/25 13:31:13;;;;;;;21.67;10.85;;;;;;;;;;4977050;28;20039;-80
2021/12/25 13:33:45;;;;;;;58.85;25.85;;;;;;;;;;4978303;28;20050;-80
2021/12/25 13:36:20;;;;;;;43.58;20.08;;;;;;;;;;4978490;28;20372;-80
2021/12/25 13:38:55;;;;;;;64.13;28.95;;;;;;;;;;4978385;28;20113;-80
2021/12/25 13:41:35;;;;;;;41.38;19.95;;;;;;;;;;4978328;28;20373;-81
2021/12/25 13:44:05;;;;;;;42.97;22.67;;;;;;;;;;4978556;28;20038;-81
2021/12/25 13:46:38;;;;;;;49.28;24.92;;;;;;;;;;4978305;28;20361;-80
2021/12/25 13:49:05;;;;;;;43.45;21.73;;;;;;;;;;4977361;28;20119;-79
2021/12/25 13:51:31;;;;;;;63.08;26.20;;;;;;;;;;4978240;28;20402;-80
2021/12/25 13:53:57;;;;;;;70.38;31.80;;;;;;;;;;4978537;28;20033;-80
2021/12/25 13:56:23;;;;;;;105.38;41.55;;;;;;;;;;4978038;28;20464;-80
2021/12/25 13:58:49;;;;;;;83.07;35.25;;;;;;;;;;4977951;28;20034;-80
2021/12/25 14:01:16;;;;;;;78.45;34.13;;;;;;;;;;4978042;28;20022;-80
2021/12/25 14:03:43;;;;;;;96.50;45.55;;;;;;;;;;4977091;28;20031;-79
2021/12/25 14:06:09;;;;;;;159.77;75.78;;;;;;;;;;4977979;28;20023;-83
2021/12/25 14:08:35;;;;;;;91.55;53.47;;;;;;;;;;4977838;28;20402;-79
2021/12/25 14:11:02;;;;;;;115.97;78.15;;;;;;;;;;4978597;28;20038;-82
2021/12/25 14:13:30;;;;;;;94.50;57.08;;;;;;;;;;4976958;28;20031;-78
2021/12/25 14:15:57;;;;;;;100.20;58.25;;;;;;;;;;4981259;28;20186;-80
2021/12/25 14:18:27;;;;;;;115.20;70.07;;;;;;;;;;4985613;28;20058;-79
2021/12/25 14:20:53;;;;;;;166.07;96.18;;;;;;;;;;4982037;28;20058;-78
2021/12/25 14:23:20;;;;;;;200.52;101.97;;;;;;;;;;4981048;28;20413;-81
2021/12/25 14:25:46;;;;;;;174.05;92.13;;;;;;;;;;4978047;28;20035;-80
2021/12/25 14:28:16;;;;;;;128.27;74.00;;;;;;;;;;4977597;28;20073;-82
2021/12/25 14:30:45;;;;;;;176.40;103.15;;;;;;;;;;4977874;28;20030;-81
2021/12/25 14:33:16;;;;;;;136.90;78.55;;;;;;;;;;4978048;28;20031;-81
2021/12/25 14:35:42;;;;;;;158.07;82.80;;;;;;;;;;4977749;28;20413;-81
2021/12/25 14:38:08;;;;;;;82.30;45.20;;;;;;;;;;4977826;28;20031;-81
2021/12/25 14:40:39;;;;;;;84.43;48.88;;;;;;;;;;4977195;28;20033;-82
2021/12/25 14:43:07;;;;;;;107.88;53.85;;;;;;;;;;4977880;28;20350;-81
2021/12/25 14:45:53;;;;;;;137.00;73.97;;;;;;;;;;4976372;28;20354;-81
2021/12/25 14:48:31;;;;;;;147.63;87.90;;;;;;;;;;4976387;28;20039;-81
2021/12/25 14:50:59;;;;;;;211.43;114.38;;;;;;;;;;4976113;28;20063;-82
2021/12/25 14:53:27;;;;;;;222.38;112.15;;;;;;;;;;4977425;28;20050;-82
2021/12/25 14:55:55;;;;;;;158.07;94.28;;;;;;;;;;4976662;28;20031;-82
2021/12/25 14:58:23;;;;;;;87.57;54.72;;;;;;;;;;4977384;28;20416;-82
2021/12/25 15:00:51;;;;;;;55.30;34.50;;;;;;;;;;4977622;28;20420;-82
2021/12/25 15:03:22;;;;;;;45.90;27.98;;;;;;;;;;4978044;28;20035;-82
2021/12/25 15:05:50;;;;;;;50.33;30.63;;;;;;;;;;4977586;28;20023;-82
2021/12/25 15:08:19;;;;;;;94.85;59.63;;;;;;;;;;4979294;28;20081;-81
2021/12/25 15:10:45;;;;;;;54.97;34.63;;;;;;;;;;4979816;28;20038;-82
2021/12/25 15:13:17;;;;;;;50.90;33.58;;;;;;;;;;4981563;28;20102;-82
2021/12/25 15:15:43;;;;;;;;;;;;;;;;;;4982626;28;20027;-81
2021/12/25 15:18:19;;;;;;;49.35;30.60;;;;;;;;;;4981347;28;20005;-81
2021/12/25 15:20:45;;;;;;;48.72;29.48;;;;;;;;;;4981033;28;20565;-81
2021/12/25 15:23:18;;;;;;;44.55;28.02;;;;;;;;;;4981092;28;20038;-82
2021/12/25 15:25:45;;;;;;;56.90;36.30;;;;;;;;;;4980697;28;20045;-82
2021/12/25 15:28:11;;;;;;;54.47;31.80;;;;;;;;;;4981085;28;20034;-81
2021/12/25 15:30:37;;;;;;;56.45;31.67;;;;;;;;;;4981417;28;20078;-82
2021/12/25 15:33:08;;;;;;;66.03;42.25;;;;;;;;;;4981101;28;20023;-81
2021/12/25 15:35:36;;;;;;;73.68;46.55;;;;;;;;;;4981083;28;20027;-84
2021/12/25 15:38:03;;;;;;;69.78;46.78;;;;;;;;;;4981063;28;20051;-83
2021/12/25 15:40:33;;;;;;;78.07;52.15;;;;;;;;;;4979867;28;20023;-83
2021/12/25 15:43:00;;;;;;;56.97;37.72;;;;;;;;;;4980189;28;20341;-83
2021/12/25 15:45:26;;;;;;;62.55;38.55;;;;;;;;;;4980483;28;20046;-82
2021/12/25 15:47:52;;;;;;;54.22;34.08;;;;;;;;;;4981122;28;20027;-82
2021/12/25 15:50:20;;;;;;;49.65;32.15;;;;;;;;;;4980881;28;20047;-82